sensor_id;sensor_type;location;lat;lon;timestamp;P1;durP1;ratioP1;P2;durP2;ratioP2
27412;SDS011;14871;52.702;5.230;2024-03-17T00:01:44;11.13;;;3.95;;
27412;SDS011;14871;52.702;5.230;2024-03-17T00:04:09;9.82;;;2.80;;
27412;SDS011;14871;52.702;5.230;2024-03-17T00:06:35;9.40;;;2.78;;
27412;SDS011;14871;52.702;5.230;2024-03-17T00:09:01;6.90;;;1.90;;
27412;SDS011;14871;52.702;5.230;2024-03-17T00:11:34;9.02;;;2.15;;
27412;SDS011;14871;52.702;5.230;2024-03-17T00:14:00;6.38;;;2.10;;
27412;SDS011;14871;52.702;5.230;2024-03-17T00:16:28;5.93;;;1.63;;
27412;SDS011;14871;52.702;5.230;2024-03-17T00:18:54;9.15;;;2.17;;
27412;SDS011;14871;52.702;5.230;2024-03-17T00:21:20;9.82;;;2.40;;
27412;SDS011;14871;52.702;5.230;2024-03-17T00:23:49;12.45;;;2.47;;
27412;SDS011;14871;52.702;5.230;2024-03-17T00:26:15;7.20;;;1.90;;
27412;SDS011;14871;52.702;5.230;2024-03-17T00:28:41;6.03;;;2.15;;
27412;SDS011;14871;52.702;5.230;2024-03-17T00:31:07;8.82;;;4.43;;
27412;SDS011;14871;52.702;5.230;2024-03-17T00:33:35;7.90;;;2.22;;
27412;SDS011;14871;52.702;5.230;2024-03-17T00:36:01;8.18;;;1.48;;
27412;SDS011;14871;52.702;5.230;2024-03-17T00:38:26;3.63;;;2.03;;
27412;SDS011;14871;52.702;5.230;2024-03-17T00:40:52;8.05;;;1.88;;
27412;SDS011;14871;52.702;5.230;2024-03-17T00:43:18;7.38;;;1.50;;
27412;SDS011;14871;52.702;5.230;2024-03-17T00:45:44;8.60;;;1.35;;
27412;SDS011;14871;52.702;5.230;2024-03-17T00:48:16;7.72;;;1.58;;
27412;SDS011;14871;52.702;5.230;2024-03-17T00:50:41;6.60;;;1.77;;
27412;SDS011;14871;52.702;5.230;2024-03-17T00:53:09;5.63;;;1.40;;
27412;SDS011;14871;52.702;5.230;2024-03-17T00:55:35;4.53;;;1.20;;
27412;SDS011;14871;52.702;5.230;2024-03-17T00:58:01;12.40;;;1.90;;
27412;SDS011;14871;52.702;5.230;2024-03-17T01:00:28;7.57;;;2.10;;
27412;SDS011;14871;52.702;5.230;2024-03-17T01:02:53;7.30;;;1.30;;
27412;SDS011;14871;52.702;5.230;2024-03-17T01:05:19;6.80;;;1.45;;
27412;SDS011;14871;52.702;5.230;2024-03-17T01:07:45;9.82;;;1.60;;
27412;SDS011;14871;52.702;5.230;2024-03-17T01:10:12;4.38;;;1.65;;
27412;SDS011;14871;52.702;5.230;2024-03-17T01:12:38;6.40;;;1.55;;
27412;SDS011;14871;52.702;5.230;2024-03-17T01:15:05;9.02;;;1.63;;
27412;SDS011;14871;52.702;5.230;2024-03-17T01:17:31;7.18;;;1.67;;
27412;SDS011;14871;52.702;5.230;2024-03-17T01:19:57;6.80;;;1.50;;
27412;SDS011;14871;52.702;5.230;2024-03-17T01:22:23;9.52;;;2.65;;
27412;SDS011;14871;52.702;5.230;2024-03-17T01:24:49;7.25;;;1.75;;
27412;SDS011;14871;52.702;5.230;2024-03-17T01:27:14;10.25;;;2.00;;
27412;SDS011;14871;52.702;5.230;2024-03-17T01:29:41;5.03;;;1.75;;
27412;SDS011;14871;52.702;5.230;2024-03-17T01:32:08;8.55;;;2.38;;
27412;SDS011;14871;52.702;5.230;2024-03-17T01:34:34;9.77;;;2.47;;
27412;SDS011;14871;52.702;5.230;2024-03-17T01:37:00;9.23;;;2.08;;
27412;SDS011;14871;52.702;5.230;2024-03-17T01:39:25;8.68;;;2.22;;
27412;SDS011;14871;52.702;5.230;2024-03-17T01:41:51;4.88;;;1.95;;
27412;SDS011;14871;52.702;5.230;2024-03-17T01:44:24;5.93;;;2.30;;
27412;SDS011;14871;52.702;5.230;2024-03-17T01:46:52;6.90;;;2.88;;
27412;SDS011;14871;52.702;5.230;2024-03-17T01:49:18;7.43;;;3.13;;
27412;SDS011;14871;52.702;5.230;2024-03-17T01:51:45;8.60;;;3.08;;
27412;SDS011;14871;52.702;5.230;2024-03-17T01:54:13;15.32;;;3.42;;
27412;SDS011;14871;52.702;5.230;2024-03-17T01:56:39;6.53;;;2.88;;
27412;SDS011;14871;52.702;5.230;2024-03-17T01:59:05;11.95;;;3.28;;
27412;SDS011;14871;52.702;5.230;2024-03-17T02:01:32;10.50;;;2.85;;
27412;SDS011;14871;52.702;5.230;2024-03-17T02:03:58;6.57;;;3.05;;
27412;SDS011;14871;52.702;5.230;2024-03-17T02:06:24;10.38;;;3.00;;
27412;SDS011;14871;52.702;5.230;2024-03-17T02:08:53;6.45;;;2.95;;
27412;SDS011;14871;52.702;5.230;2024-03-17T02:11:23;4.47;;;2.25;;
27412;SDS011;14871;52.702;5.230;2024-03-17T02:13:53;10.35;;;2.50;;
27412;SDS011;14871;52.702;5.230;2024-03-17T02:16:19;6.75;;;2.45;;
27412;SDS011;14871;52.702;5.230;2024-03-17T02:18:45;5.70;;;2.50;;
27412;SDS011;14871;52.702;5.230;2024-03-17T02:21:11;6.47;;;2.58;;
27412;SDS011;14871;52.702;5.230;2024-03-17T02:23:43;7.40;;;2.08;;
27412;SDS011;14871;52.702;5.230;2024-03-17T02:26:09;7.88;;;2.35;;
27412;SDS011;14871;52.702;5.230;2024-03-17T02:28:42;8.82;;;2.80;;
27412;SDS011;14871;52.702;5.230;2024-03-17T02:31:09;9.48;;;2.45;;
27412;SDS011;14871;52.702;5.230;2024-03-17T02:33:36;7.38;;;2.88;;
27412;SDS011;14871;52.702;5.230;2024-03-17T02:36:02;7.88;;;2.63;;
27412;SDS011;14871;52.702;5.230;2024-03-17T02:38:29;8.05;;;2.55;;
27412;SDS011;14871;52.702;5.230;2024-03-17T02:43:40;8.00;;;2.60;;
27412;SDS011;14871;52.702;5.230;2024-03-17T02:46:06;11.68;;;2.42;;
27412;SDS011;14871;52.702;5.230;2024-03-17T02:48:33;8.18;;;2.38;;
27412;SDS011;14871;52.702;5.230;2024-03-17T02:51:00;6.65;;;2.17;;
27412;SDS011;14871;52.702;5.230;2024-03-17T02:53:25;7.38;;;2.40;;
27412;SDS011;14871;52.702;5.230;2024-03-17T02:55:51;11.23;;;2.58;;
27412;SDS011;14871;52.702;5.230;2024-03-17T02:58:16;6.47;;;2.45;;
27412;SDS011;14871;52.702;5.230;2024-03-17T03:00:42;10.32;;;2.53;;
27412;SDS011;14871;52.702;5.230;2024-03-17T03:03:08;8.55;;;2.25;;
27412;SDS011;14871;52.702;5.230;2024-03-17T03:05:33;10.20;;;2.50;;
27412;SDS011;14871;52.702;5.230;2024-03-17T03:07:59;8.88;;;2.10;;
27412;SDS011;14871;52.702;5.230;2024-03-17T03:10:24;6.57;;;1.75;;
27412;SDS011;14871;52.702;5.230;2024-03-17T03:12:50;7.03;;;2.30;;
27412;SDS011;14871;52.702;5.230;2024-03-17T03:15:16;9.18;;;2.70;;
27412;SDS011;14871;52.702;5.230;2024-03-17T03:17:42;7.70;;;2.10;;
27412;SDS011;14871;52.702;5.230;2024-03-17T03:20:08;8.93;;;2.22;;
27412;SDS011;14871;52.702;5.230;2024-03-17T03:22:34;8.93;;;1.98;;
27412;SDS011;14871;52.702;5.230;2024-03-17T03:24:59;7.43;;;2.10;;
27412;SDS011;14871;52.702;5.230;2024-03-17T03:27:25;8.25;;;2.20;;
27412;SDS011;14871;52.702;5.230;2024-03-17T03:29:50;8.75;;;2.22;;
27412;SDS011;14871;52.702;5.230;2024-03-17T03:32:16;11.88;;;2.42;;
27412;SDS011;14871;52.702;5.230;2024-03-17T03:34:42;6.45;;;2.42;;
27412;SDS011;14871;52.702;5.230;2024-03-17T03:37:08;10.15;;;3.03;;
27412;SDS011;14871;52.702;5.230;2024-03-17T03:39:35;9.80;;;2.60;;
27412;SDS011;14871;52.702;5.230;2024-03-17T03:42:01;9.73;;;2.30;;
27412;SDS011;14871;52.702;5.230;2024-03-17T03:44:27;6.18;;;2.63;;
27412;SDS011;14871;52.702;5.230;2024-03-17T03:46:53;6.35;;;2.03;;
27412;SDS011;14871;52.702;5.230;2024-03-17T03:49:23;7.60;;;2.65;;
27412;SDS011;14871;52.702;5.230;2024-03-17T03:51:50;9.50;;;3.17;;
27412;SDS011;14871;52.702;5.230;2024-03-17T03:54:15;11.30;;;3.33;;
27412;SDS011;14871;52.702;5.230;2024-03-17T03:56:41;11.50;;;2.97;;
27412;SDS011;14871;52.702;5.230;2024-03-17T03:59:06;9.20;;;3.00;;
27412;SDS011;14871;52.702;5.230;2024-03-17T04:01:32;7.93;;;3.67;;
27412;SDS011;14871;52.702;5.230;2024-03-17T04:03:58;9.40;;;4.03;;
27412;SDS011;14871;52.702;5.230;2024-03-17T04:06:23;6.85;;;3.90;;
27412;SDS011;14871;52.702;5.230;2024-03-17T04:08:49;10.38;;;4.55;;
27412;SDS011;14871;52.702;5.230;2024-03-17T04:11:14;13.55;;;4.60;;
27412;SDS011;14871;52.702;5.230;2024-03-17T04:13:40;9.93;;;4.50;;
27412;SDS011;14871;52.702;5.230;2024-03-17T04:16:06;10.38;;;4.38;;
27412;SDS011;14871;52.702;5.230;2024-03-17T04:18:33;6.95;;;4.13;;
27412;SDS011;14871;52.702;5.230;2024-03-17T04:21:02;9.70;;;4.35;;
27412;SDS011;14871;52.702;5.230;2024-03-17T04:23:29;9.10;;;4.22;;
27412;SDS011;14871;52.702;5.230;2024-03-17T04:25:58;9.02;;;4.35;;
27412;SDS011;14871;52.702;5.230;2024-03-17T04:28:25;12.88;;;4.78;;
27412;SDS011;14871;52.702;5.230;2024-03-17T04:30:51;9.40;;;4.55;;
27412;SDS011;14871;52.702;5.230;2024-03-17T04:33:16;10.60;;;4.65;;
27412;SDS011;14871;52.702;5.230;2024-03-17T04:35:42;8.68;;;4.20;;
27412;SDS011;14871;52.702;5.230;2024-03-17T04:38:08;8.32;;;3.92;;
27412;SDS011;14871;52.702;5.230;2024-03-17T04:40:34;7.43;;;3.80;;
27412;SDS011;14871;52.702;5.230;2024-03-17T04:43:06;10.65;;;4.20;;
27412;SDS011;14871;52.702;5.230;2024-03-17T04:45:33;6.65;;;3.97;;
27412;SDS011;14871;52.702;5.230;2024-03-17T04:47:58;11.80;;;4.57;;
27412;SDS011;14871;52.702;5.230;2024-03-17T04:50:24;10.32;;;4.40;;
27412;SDS011;14871;52.702;5.230;2024-03-17T04:52:51;10.77;;;3.88;;
27412;SDS011;14871;52.702;5.230;2024-03-17T04:55:17;11.57;;;4.50;;
27412;SDS011;14871;52.702;5.230;2024-03-17T04:57:44;9.45;;;3.97;;
27412;SDS011;14871;52.702;5.230;2024-03-17T05:00:10;14.55;;;5.00;;
27412;SDS011;14871;52.702;5.230;2024-03-17T05:02:37;9.48;;;4.13;;
27412;SDS011;14871;52.702;5.230;2024-03-17T05:05:03;7.78;;;4.38;;
27412;SDS011;14871;52.702;5.230;2024-03-17T05:07:30;13.80;;;5.30;;
27412;SDS011;14871;52.702;5.230;2024-03-17T05:09:56;8.52;;;4.53;;
27412;SDS011;14871;52.702;5.230;2024-03-17T05:12:22;7.60;;;4.60;;
27412;SDS011;14871;52.702;5.230;2024-03-17T05:14:48;8.75;;;4.80;;
27412;SDS011;14871;52.702;5.230;2024-03-17T05:17:13;6.80;;;4.43;;
27412;SDS011;14871;52.702;5.230;2024-03-17T05:19:39;14.25;;;5.90;;
27412;SDS011;14871;52.702;5.230;2024-03-17T05:22:04;9.27;;;5.07;;
27412;SDS011;14871;52.702;5.230;2024-03-17T05:24:30;11.07;;;5.57;;
27412;SDS011;14871;52.702;5.230;2024-03-17T05:26:56;14.77;;;5.93;;
27412;SDS011;14871;52.702;5.230;2024-03-17T05:29:22;11.77;;;6.75;;
27412;SDS011;14871;52.702;5.230;2024-03-17T05:31:47;10.40;;;5.43;;
27412;SDS011;14871;52.702;5.230;2024-03-17T05:34:14;13.57;;;5.43;;
27412;SDS011;14871;52.702;5.230;2024-03-17T05:36:40;14.63;;;6.28;;
27412;SDS011;14871;52.702;5.230;2024-03-17T05:39:05;8.93;;;5.30;;
27412;SDS011;14871;52.702;5.230;2024-03-17T05:41:31;7.78;;;5.40;;
27412;SDS011;14871;52.702;5.230;2024-03-17T05:43:56;11.73;;;5.70;;
27412;SDS011;14871;52.702;5.230;2024-03-17T05:46:28;11.38;;;5.82;;
27412;SDS011;14871;52.702;5.230;2024-03-17T05:48:54;12.80;;;5.90;;
27412;SDS011;14871;52.702;5.230;2024-03-17T05:51:19;12.13;;;5.68;;
27412;SDS011;14871;52.702;5.230;2024-03-17T05:53:45;12.82;;;6.40;;
27412;SDS011;14871;52.702;5.230;2024-03-17T05:56:11;14.18;;;6.47;;
27412;SDS011;14871;52.702;5.230;2024-03-17T05:58:37;15.35;;;6.20;;
27412;SDS011;14871;52.702;5.230;2024-03-17T06:01:04;9.80;;;6.07;;
27412;SDS011;14871;52.702;5.230;2024-03-17T06:03:32;13.48;;;6.35;;
27412;SDS011;14871;52.702;5.230;2024-03-17T06:06:00;11.50;;;6.38;;
27412;SDS011;14871;52.702;5.230;2024-03-17T06:08:26;11.63;;;6.38;;
27412;SDS011;14871;52.702;5.230;2024-03-17T06:10:52;12.40;;;6.88;;
27412;SDS011;14871;52.702;5.230;2024-03-17T06:13:17;9.40;;;6.28;;
27412;SDS011;14871;52.702;5.230;2024-03-17T06:15:44;10.55;;;6.50;;
27412;SDS011;14871;52.702;5.230;2024-03-17T06:18:12;11.82;;;6.60;;
27412;SDS011;14871;52.702;5.230;2024-03-17T06:20:42;14.88;;;6.32;;
27412;SDS011;14871;52.702;5.230;2024-03-17T06:23:10;12.73;;;7.10;;
27412;SDS011;14871;52.702;5.230;2024-03-17T06:25:39;10.57;;;6.13;;
27412;SDS011;14871;52.702;5.230;2024-03-17T06:28:05;9.80;;;6.82;;
27412;SDS011;14871;52.702;5.230;2024-03-17T06:30:31;13.27;;;6.80;;
27412;SDS011;14871;52.702;5.230;2024-03-17T06:32:58;16.70;;;7.53;;
27412;SDS011;14871;52.702;5.230;2024-03-17T06:35:23;11.90;;;6.47;;
27412;SDS011;14871;52.702;5.230;2024-03-17T06:37:51;11.95;;;7.45;;
27412;SDS011;14871;52.702;5.230;2024-03-17T06:40:18;12.18;;;7.78;;
27412;SDS011;14871;52.702;5.230;2024-03-17T06:42:43;13.52;;;7.70;;
27412;SDS011;14871;52.702;5.230;2024-03-17T06:45:09;10.85;;;7.45;;
27412;SDS011;14871;52.702;5.230;2024-03-17T06:47:38;13.85;;;7.53;;
27412;SDS011;14871;52.702;5.230;2024-03-17T06:50:05;12.93;;;7.35;;
27412;SDS011;14871;52.702;5.230;2024-03-17T06:52:31;13.20;;;7.35;;
27412;SDS011;14871;52.702;5.230;2024-03-17T06:54:57;11.07;;;7.18;;
27412;SDS011;14871;52.702;5.230;2024-03-17T06:57:23;13.07;;;7.88;;
27412;SDS011;14871;52.702;5.230;2024-03-17T06:59:49;11.43;;;8.10;;
27412;SDS011;14871;52.702;5.230;2024-03-17T07:02:15;11.60;;;7.30;;
27412;SDS011;14871;52.702;5.230;2024-03-17T07:04:43;10.05;;;8.07;;
27412;SDS011;14871;52.702;5.230;2024-03-17T07:07:12;15.32;;;7.22;;
27412;SDS011;14871;52.702;5.230;2024-03-17T07:09:38;12.10;;;7.63;;
27412;SDS011;14871;52.702;5.230;2024-03-17T07:12:07;13.68;;;7.90;;
27412;SDS011;14871;52.702;5.230;2024-03-17T07:14:38;10.45;;;8.20;;
27412;SDS011;14871;52.702;5.230;2024-03-17T07:17:04;11.98;;;7.45;;
27412;SDS011;14871;52.702;5.230;2024-03-17T07:19:30;10.20;;;7.45;;
27412;SDS011;14871;52.702;5.230;2024-03-17T07:22:00;14.15;;;7.93;;
27412;SDS011;14871;52.702;5.230;2024-03-17T07:24:26;12.73;;;8.15;;
27412;SDS011;14871;52.702;5.230;2024-03-17T07:26:52;13.25;;;7.82;;
27412;SDS011;14871;52.702;5.230;2024-03-17T07:29:18;11.45;;;7.38;;
27412;SDS011;14871;52.702;5.230;2024-03-17T07:31:44;12.27;;;7.50;;
27412;SDS011;14871;52.702;5.230;2024-03-17T07:34:10;12.57;;;7.90;;
27412;SDS011;14871;52.702;5.230;2024-03-17T07:36:35;12.90;;;7.50;;
27412;SDS011;14871;52.702;5.230;2024-03-17T07:39:01;10.20;;;7.50;;
27412;SDS011;14871;52.702;5.230;2024-03-17T07:41:27;10.55;;;7.78;;
27412;SDS011;14871;52.702;5.230;2024-03-17T07:43:53;13.80;;;8.10;;
27412;SDS011;14871;52.702;5.230;2024-03-17T07:46:18;12.20;;;7.78;;
27412;SDS011;14871;52.702;5.230;2024-03-17T07:48:44;11.95;;;7.53;;
27412;SDS011;14871;52.702;5.230;2024-03-17T07:51:11;10.55;;;7.00;;
27412;SDS011;14871;52.702;5.230;2024-03-17T07:53:42;11.32;;;8.10;;
27412;SDS011;14871;52.702;5.230;2024-03-17T07:56:10;14.05;;;8.02;;
27412;SDS011;14871;52.702;5.230;2024-03-17T07:58:38;12.18;;;7.30;;
27412;SDS011;14871;52.702;5.230;2024-03-17T08:01:11;12.98;;;7.22;;
27412;SDS011;14871;52.702;5.230;2024-03-17T08:03:39;9.65;;;7.53;;
27412;SDS011;14871;52.702;5.230;2024-03-17T08:06:06;14.00;;;7.88;;
27412;SDS011;14871;52.702;5.230;2024-03-17T08:08:33;13.63;;;8.40;;
27412;SDS011;14871;52.702;5.230;2024-03-17T08:10:59;14.13;;;8.10;;
27412;SDS011;14871;52.702;5.230;2024-03-17T08:13:28;13.88;;;7.90;;
27412;SDS011;14871;52.702;5.230;2024-03-17T08:15:59;13.48;;;8.05;;
27412;SDS011;14871;52.702;5.230;2024-03-17T08:18:27;14.10;;;8.02;;
27412;SDS011;14871;52.702;5.230;2024-03-17T08:20:53;15.07;;;8.48;;
27412;SDS011;14871;52.702;5.230;2024-03-17T08:23:19;13.90;;;8.63;;
27412;SDS011;14871;52.702;5.230;2024-03-17T08:25:54;14.02;;;7.72;;
27412;SDS011;14871;52.702;5.230;2024-03-17T08:28:21;10.57;;;7.70;;
27412;SDS011;14871;52.702;5.230;2024-03-17T08:30:51;10.18;;;7.95;;
27412;SDS011;14871;52.702;5.230;2024-03-17T08:33:20;11.90;;;8.27;;
27412;SDS011;14871;52.702;5.230;2024-03-17T08:35:57;12.00;;;8.55;;
27412;SDS011;14871;52.702;5.230;2024-03-17T08:38:24;11.52;;;8.48;;
27412;SDS011;14871;52.702;5.230;2024-03-17T08:40:52;12.68;;;7.70;;
27412;SDS011;14871;52.702;5.230;2024-03-17T08:43:19;19.65;;;8.80;;
27412;SDS011;14871;52.702;5.230;2024-03-17T08:45:45;10.88;;;8.02;;
27412;SDS011;14871;52.702;5.230;2024-03-17T08:48:19;14.02;;;8.40;;
27412;SDS011;14871;52.702;5.230;2024-03-17T08:50:49;11.85;;;8.07;;
27412;SDS011;14871;52.702;5.230;2024-03-17T08:53:16;10.98;;;8.88;;
27412;SDS011;14871;52.702;5.230;2024-03-17T08:55:41;11.98;;;7.85;;
27412;SDS011;14871;52.702;5.230;2024-03-17T08:58:07;12.30;;;8.15;;
27412;SDS011;14871;52.702;5.230;2024-03-17T09:00:34;14.13;;;9.52;;
27412;SDS011;14871;52.702;5.230;2024-03-17T09:03:01;11.85;;;8.43;;
27412;SDS011;14871;52.702;5.230;2024-03-17T09:05:27;11.88;;;8.57;;
27412;SDS011;14871;52.702;5.230;2024-03-17T09:07:53;14.73;;;9.15;;
27412;SDS011;14871;52.702;5.230;2024-03-17T09:10:20;14.18;;;8.70;;
27412;SDS011;14871;52.702;5.230;2024-03-17T09:12:46;11.73;;;8.98;;
27412;SDS011;14871;52.702;5.230;2024-03-17T09:15:12;12.32;;;8.35;;
27412;SDS011;14871;52.702;5.230;2024-03-17T09:17:39;13.52;;;8.98;;
27412;SDS011;14871;52.702;5.230;2024-03-17T09:20:06;14.10;;;9.30;;
27412;SDS011;14871;52.702;5.230;2024-03-17T09:22:36;12.48;;;8.80;;
27412;SDS011;14871;52.702;5.230;2024-03-17T09:25:08;12.85;;;9.20;;
27412;SDS011;14871;52.702;5.230;2024-03-17T09:27:34;11.73;;;8.98;;
27412;SDS011;14871;52.702;5.230;2024-03-17T09:30:06;13.13;;;8.93;;
27412;SDS011;14871;52.702;5.230;2024-03-17T09:32:34;10.98;;;8.43;;
27412;SDS011;14871;52.702;5.230;2024-03-17T09:35:00;12.43;;;8.60;;
27412;SDS011;14871;52.702;5.230;2024-03-17T09:37:26;11.40;;;8.10;;
27412;SDS011;14871;52.702;5.230;2024-03-17T09:39:53;11.00;;;8.68;;
27412;SDS011;14871;52.702;5.230;2024-03-17T09:42:22;12.15;;;8.68;;
27412;SDS011;14871;52.702;5.230;2024-03-17T09:44:49;12.38;;;9.25;;
27412;SDS011;14871;52.702;5.230;2024-03-17T09:47:16;13.13;;;8.73;;
27412;SDS011;14871;52.702;5.230;2024-03-17T09:49:47;13.85;;;9.02;;
27412;SDS011;14871;52.702;5.230;2024-03-17T09:52:23;10.63;;;7.50;;
27412;SDS011;14871;52.702;5.230;2024-03-17T09:55:14;14.27;;;7.93;;
27412;SDS011;14871;52.702;5.230;2024-03-17T09:57:42;12.82;;;9.10;;
27412;SDS011;14871;52.702;5.230;2024-03-17T10:00:09;12.32;;;8.80;;
27412;SDS011;14871;52.702;5.230;2024-03-17T10:02:42;11.20;;;8.30;;
27412;SDS011;14871;52.702;5.230;2024-03-17T10:05:19;10.85;;;8.20;;
27412;SDS011;14871;52.702;5.230;2024-03-17T10:07:49;12.05;;;8.50;;
27412;SDS011;14871;52.702;5.230;2024-03-17T10:10:16;12.60;;;7.82;;
27412;SDS011;14871;52.702;5.230;2024-03-17T10:12:49;11.32;;;8.07;;
27412;SDS011;14871;52.702;5.230;2024-03-17T10:15:19;13.57;;;8.60;;
27412;SDS011;14871;52.702;5.230;2024-03-17T10:17:48;10.65;;;7.75;;
27412;SDS011;14871;52.702;5.230;2024-03-17T10:20:15;10.60;;;8.23;;
27412;SDS011;14871;52.702;5.230;2024-03-17T10:25:34;10.88;;;7.80;;
27412;SDS011;14871;52.702;5.230;2024-03-17T10:28:04;12.40;;;8.10;;
27412;SDS011;14871;52.702;5.230;2024-03-17T10:30:39;10.05;;;7.75;;
27412;SDS011;14871;52.702;5.230;2024-03-17T10:33:05;10.60;;;8.10;;
27412;SDS011;14871;52.702;5.230;2024-03-17T10:35:34;11.13;;;8.07;;
27412;SDS011;14871;52.702;5.230;2024-03-17T10:38:04;12.68;;;8.63;;
27412;SDS011;14871;52.702;5.230;2024-03-17T10:40:30;11.70;;;8.77;;
27412;SDS011;14871;52.702;5.230;2024-03-17T10:43:06;12.20;;;8.52;;
27412;SDS011;14871;52.702;5.230;2024-03-17T10:45:33;12.23;;;8.35;;
27412;SDS011;14871;52.702;5.230;2024-03-17T10:48:06;11.48;;;8.18;;
27412;SDS011;14871;52.702;5.230;2024-03-17T10:50:37;11.18;;;8.55;;
27412;SDS011;14871;52.702;5.230;2024-03-17T10:53:05;11.48;;;9.20;;
27412;SDS011;14871;52.702;5.230;2024-03-17T10:55:44;12.30;;;7.55;;
27412;SDS011;14871;52.702;5.230;2024-03-17T11:01:18;12.98;;;8.02;;
27412;SDS011;14871;52.702;5.230;2024-03-17T11:03:45;11.27;;;7.88;;
27412;SDS011;14871;52.702;5.230;2024-03-17T11:06:12;11.60;;;8.82;;
27412;SDS011;14871;52.702;5.230;2024-03-17T11:08:38;11.82;;;7.65;;
27412;SDS011;14871;52.702;5.230;2024-03-17T11:11:07;9.75;;;7.18;;
27412;SDS011;14871;52.702;5.230;2024-03-17T11:13:34;11.75;;;7.82;;
27412;SDS011;14871;52.702;5.230;2024-03-17T11:16:01;10.32;;;7.28;;
27412;SDS011;14871;52.702;5.230;2024-03-17T11:18:33;11.60;;;7.40;;
27412;SDS011;14871;52.702;5.230;2024-03-17T11:21:01;12.00;;;7.35;;
27412;SDS011;14871;52.702;5.230;2024-03-17T11:23:36;11.70;;;7.25;;
27412;SDS011;14871;52.702;5.230;2024-03-17T11:26:02;8.23;;;6.60;;
27412;SDS011;14871;52.702;5.230;2024-03-17T11:33:58;8.75;;;6.50;;
27412;SDS011;14871;52.702;5.230;2024-03-17T11:38:54;9.55;;;6.93;;
27412;SDS011;14871;52.702;5.230;2024-03-17T11:41:43;10.40;;;6.97;;
27412;SDS011;14871;52.702;5.230;2024-03-17T11:47:05;10.38;;;6.72;;
27412;SDS011;14871;52.702;5.230;2024-03-17T11:49:33;12.63;;;7.43;;
27412;SDS011;14871;52.702;5.230;2024-03-17T11:52:09;12.40;;;7.75;;
27412;SDS011;14871;52.702;5.230;2024-03-17T11:54:38;13.05;;;8.02;;
27412;SDS011;14871;52.702;5.230;2024-03-17T11:57:05;13.75;;;8.18;;
27412;SDS011;14871;52.702;5.230;2024-03-17T11:59:38;11.93;;;8.63;;
27412;SDS011;14871;52.702;5.230;2024-03-17T12:04:47;10.45;;;7.95;;
27412;SDS011;14871;52.702;5.230;2024-03-17T12:07:14;11.98;;;7.35;;
27412;SDS011;14871;52.702;5.230;2024-03-17T12:09:42;10.40;;;9.30;;
27412;SDS011;14871;52.702;5.230;2024-03-17T12:14:39;14.75;;;10.70;;
27412;SDS011;14871;52.702;5.230;2024-03-17T12:17:06;10.90;;;9.63;;
27412;SDS011;14871;52.702;5.230;2024-03-17T12:19:33;12.98;;;9.75;;
27412;SDS011;14871;52.702;5.230;2024-03-17T12:21:59;16.13;;;10.57;;
27412;SDS011;14871;52.702;5.230;2024-03-17T12:24:26;16.67;;;10.05;;
27412;SDS011;14871;52.702;5.230;2024-03-17T12:26:53;14.60;;;9.95;;
27412;SDS011;14871;52.702;5.230;2024-03-17T12:31:52;12.88;;;9.55;;
27412;SDS011;14871;52.702;5.230;2024-03-17T12:34:19;13.85;;;9.13;;
27412;SDS011;14871;52.702;5.230;2024-03-17T12:36:45;12.80;;;9.60;;
27412;SDS011;14871;52.702;5.230;2024-03-17T12:39:16;16.25;;;10.43;;
27412;SDS011;14871;52.702;5.230;2024-03-17T12:41:44;13.85;;;10.23;;
27412;SDS011;14871;52.702;5.230;2024-03-17T12:44:21;15.98;;;9.50;;
27412;SDS011;14871;52.702;5.230;2024-03-17T12:46:47;14.80;;;8.85;;
27412;SDS011;14871;52.702;5.230;2024-03-17T12:49:13;12.13;;;9.85;;
27412;SDS011;14871;52.702;5.230;2024-03-17T12:51:38;13.50;;;9.98;;
27412;SDS011;14871;52.702;5.230;2024-03-17T12:54:11;12.88;;;9.68;;
27412;SDS011;14871;52.702;5.230;2024-03-17T12:56:42;14.02;;;9.77;;
27412;SDS011;14871;52.702;5.230;2024-03-17T12:59:36;13.73;;;9.68;;
27412;SDS011;14871;52.702;5.230;2024-03-17T13:02:23;10.68;;;8.10;;
27412;SDS011;14871;52.702;5.230;2024-03-17T13:05:05;13.52;;;9.63;;
27412;SDS011;14871;52.702;5.230;2024-03-17T13:07:31;13.32;;;9.40;;
27412;SDS011;14871;52.702;5.230;2024-03-17T13:09:57;13.98;;;8.88;;
27412;SDS011;14871;52.702;5.230;2024-03-17T13:12:23;13.13;;;9.52;;
27412;SDS011;14871;52.702;5.230;2024-03-17T13:14:48;11.45;;;9.85;;
27412;SDS011;14871;52.702;5.230;2024-03-17T13:17:14;15.45;;;9.70;;
27412;SDS011;14871;52.702;5.230;2024-03-17T13:19:46;14.10;;;8.93;;
27412;SDS011;14871;52.702;5.230;2024-03-17T13:22:12;12.25;;;9.18;;
27412;SDS011;14871;52.702;5.230;2024-03-17T13:24:38;15.20;;;9.77;;
27412;SDS011;14871;52.702;5.230;2024-03-17T13:27:04;12.75;;;9.13;;
27412;SDS011;14871;52.702;5.230;2024-03-17T13:29:31;14.40;;;9.40;;
27412;SDS011;14871;52.702;5.230;2024-03-17T13:32:03;13.63;;;9.45;;
27412;SDS011;14871;52.702;5.230;2024-03-17T13:34:29;9.90;;;8.25;;
27412;SDS011;14871;52.702;5.230;2024-03-17T13:36:55;14.77;;;9.80;;
27412;SDS011;14871;52.702;5.230;2024-03-17T13:39:21;12.20;;;9.80;;
27412;SDS011;14871;52.702;5.230;2024-03-17T13:41:47;16.52;;;10.32;;
27412;SDS011;14871;52.702;5.230;2024-03-17T13:44:14;12.75;;;9.45;;
27412;SDS011;14871;52.702;5.230;2024-03-17T13:46:40;16.92;;;9.75;;
27412;SDS011;14871;52.702;5.230;2024-03-17T13:49:09;12.82;;;9.52;;
27412;SDS011;14871;52.702;5.230;2024-03-17T13:51:34;14.15;;;10.35;;
27412;SDS011;14871;52.702;5.230;2024-03-17T13:54:00;15.57;;;10.25;;
27412;SDS011;14871;52.702;5.230;2024-03-17T13:56:27;13.75;;;9.23;;
27412;SDS011;14871;52.702;5.230;2024-03-17T13:58:52;15.43;;;9.90;;
27412;SDS011;14871;52.702;5.230;2024-03-17T14:01:18;15.57;;;10.30;;
27412;SDS011;14871;52.702;5.230;2024-03-17T14:03:43;12.52;;;8.57;;
27412;SDS011;14871;52.702;5.230;2024-03-17T14:06:10;12.85;;;9.82;;
27412;SDS011;14871;52.702;5.230;2024-03-17T14:08:36;12.10;;;9.15;;
27412;SDS011;14871;52.702;5.230;2024-03-17T14:11:02;14.38;;;9.40;;
27412;SDS011;14871;52.702;5.230;2024-03-17T14:13:29;13.65;;;9.70;;
27412;SDS011;14871;52.702;5.230;2024-03-17T14:15:55;14.07;;;11.23;;
27412;SDS011;14871;52.702;5.230;2024-03-17T14:18:21;12.95;;;9.45;;
27412;SDS011;14871;52.702;5.230;2024-03-17T14:20:46;14.30;;;10.13;;
27412;SDS011;14871;52.702;5.230;2024-03-17T14:23:12;17.48;;;10.20;;
27412;SDS011;14871;52.702;5.230;2024-03-17T14:25:38;11.80;;;9.57;;
27412;SDS011;14871;52.702;5.230;2024-03-17T14:28:04;13.90;;;9.25;;
27412;SDS011;14871;52.702;5.230;2024-03-17T14:30:31;17.17;;;9.65;;
27412;SDS011;14871;52.702;5.230;2024-03-17T14:32:58;18.35;;;9.65;;
27412;SDS011;14871;52.702;5.230;2024-03-17T14:35:24;11.73;;;8.35;;
27412;SDS011;14871;52.702;5.230;2024-03-17T14:37:52;12.73;;;8.80;;
27412;SDS011;14871;52.702;5.230;2024-03-17T14:40:18;14.85;;;8.48;;
27412;SDS011;14871;52.702;5.230;2024-03-17T14:42:49;13.43;;;9.10;;
27412;SDS011;14871;52.702;5.230;2024-03-17T14:45:16;19.15;;;8.77;;
27412;SDS011;14871;52.702;5.230;2024-03-17T14:47:42;19.90;;;8.60;;
27412;SDS011;14871;52.702;5.230;2024-03-17T14:50:09;9.88;;;8.02;;
27412;SDS011;14871;52.702;5.230;2024-03-17T14:52:37;16.70;;;8.55;;
27412;SDS011;14871;52.702;5.230;2024-03-17T14:55:03;13.45;;;8.60;;
27412;SDS011;14871;52.702;5.230;2024-03-17T14:57:29;11.43;;;8.15;;
27412;SDS011;14871;52.702;5.230;2024-03-17T14:59:55;13.95;;;8.95;;
27412;SDS011;14871;52.702;5.230;2024-03-17T15:02:21;11.65;;;8.00;;
27412;SDS011;14871;52.702;5.230;2024-03-17T15:04:48;12.10;;;8.38;;
27412;SDS011;14871;52.702;5.230;2024-03-17T15:07:16;13.73;;;8.30;;